Time;durP1;ratioP1;P1;durP2;ratioP2;P2;SDS_P1;SDS_P2;PMS_P1;PMS_P2;Temp;Humidity;BMP_temperature;BMP_pressure;BME280_temperature;BME280_humidity;BME280_pressure;Samples;Min_cycle;Max_cycle;Signal;HPM_P1;HPM_P2
2022/01/17 00:02:06;;;;;;;27.80;14.23;;;;;;;2.49;100.00;99825.47;4789275;29;20070;-53
2022/01/17 00:04:31;;;;;;;30.73;15.47;;;;;;;2.53;100.00;99829.53;4789013;29;20478;-52
2022/01/17 00:06:56;;;;;;;24.73;13.37;;;;;;;2.54;100.00;99827.72;4787640;30;20031;-55
2022/01/17 00:09:22;;;;;;;26.47;14.43;;;;;;;2.49;100.00;99817.56;4788782;29;20474;-54
2022/01/17 00:11:50;;;;;;;26.70;13.63;;;;;;;2.36;100.00;99824.00;4788790;29;20030;-53
2022/01/17 00:14:21;;;;;;;28.70;14.47;;;;;;;2.48;100.00;99826.44;4788734;29;20328;-55
2022/01/17 00:17:02;;;;;;;27.43;14.03;;;;;;;2.43;100.00;99817.22;4788761;29;20362;-54
2022/01/17 00:19:36;;;;;;;27.43;14.43;;;;;;;2.44;100.00;99819.75;4788688;29;20284;-51
2022/01/17 00:22:02;;;;;;;29.57;14.63;;;;;;;2.43;100.00;99817.22;4788962;29;20841;-53
2022/01/17 00:24:28;;;;;;;27.10;14.30;;;;;;;2.42;100.00;99819.03;4787554;30;20358;-55
2022/01/17 00:26:56;;;;;;;29.50;15.23;;;;;;;2.47;100.00;99806.31;4788445;29;20578;-54
2022/01/17 00:29:22;;;;;;;27.63;14.53;;;;;;;2.42;100.00;99810.31;4788594;29;20043;-55
2022/01/17 00:31:47;;;;;;;29.27;15.40;;;;;;;2.38;100.00;99804.44;4788529;29;20283;-55
2022/01/17 00:34:13;;;;;;;29.70;15.43;;;;;;;2.29;100.00;99807.84;4788502;29;20114;-56
2022/01/17 00:36:38;;;;;;;29.37;15.33;;;;;;;2.26;100.00;99809.91;4788450;29;20080;-56
2022/01/17 00:39:04;;;;;;;30.27;16.33;;;;;;;2.27;100.00;99816.84;4788321;29;20035;-55
2022/01/17 00:41:29;;;;;;;27.60;15.43;;;;;;;2.30;100.00;99811.31;4788402;29;20043;-52
2022/01/17 00:43:55;;;;;;;28.73;15.47;;;;;;;2.23;100.00;99818.06;4788385;29;20031;-51
2022/01/17 00:46:21;;;;;;;33.00;16.13;;;;;;;2.17;100.00;99816.78;4788243;29;20039;-54
2022/01/17 00:48:47;;;;;;;31.17;16.17;;;;;;;2.18;100.00;99811.38;4788219;29;20275;-52
2022/01/17 00:51:12;;;;;;;32.77;16.13;;;;;;;2.19;100.00;99809.59;4788251;29;20043;-54
2022/01/17 00:53:38;;;;;;;30.50;16.77;;;;;;;2.19;100.00;99815.66;4788002;30;20302;-52
2022/01/17 00:56:07;;;;;;;31.73;17.20;;;;;;;2.24;100.00;99815.28;4788305;29;20664;-55
2022/01/17 00:58:33;;;;;;;33.80;17.47;;;;;;;2.23;100.00;99818.88;4788157;29;20035;-52
2022/01/17 01:00:58;;;;;;;33.20;18.67;;;;;;;2.19;100.00;99828.03;4788026;29;20340;-55
2022/01/17 01:03:24;;;;;;;32.00;16.80;;;;;;;2.19;100.00;99820.94;4787974;29;20279;-53
2022/01/17 01:05:49;;;;;;;32.17;17.10;;;;;;;2.11;100.00;99822.53;4787838;29;20035;-50
2022/01/17 01:08:15;;;;;;;32.47;17.70;;;;;;;2.09;100.00;99819.19;4787854;29;20035;-52
2022/01/17 01:10:41;;;;;;;34.97;18.13;;;;;;;2.06;100.00;99824.72;4787811;29;20039;-54
2022/01/17 01:13:07;;;;;;;34.33;17.73;;;;;;;2.06;100.00;99819.47;4787843;29;20085;-54
2022/01/17 01:19:05;;;;;;;35.77;18.33;;;;;;;1.97;100.00;99813.13;4786944;29;20031;-54
2022/01/17 01:29:03;;;;;;;34.90;18.50;;;;;;;2.10;100.00;99813.78;4787483;29;20286;-54
2022/01/17 01:31:43;;;;;;;37.87;18.93;;;;;;;2.07;100.00;99819.34;4786423;30;20770;-54
2022/01/17 01:34:10;;;;;;;35.80;19.27;;;;;;;2.10;100.00;99807.69;4787750;29;20039;-55
2022/01/17 01:36:35;;;;;;;35.83;18.70;;;;;;;2.12;100.00;99806.59;4787416;29;20271;-53
2022/01/17 01:39:04;;;;;;;35.40;18.47;;;;;;;2.07;100.00;99795.63;4787117;29;20275;-55
2022/01/17 01:41:29;;;;;;;39.67;19.17;;;;;;;2.03;100.00;99803.88;4787389;29;20104;-54
2022/01/17 01:43:55;;;;;;;40.77;20.07;;;;;;;1.97;100.00;99805.22;4787183;29;20753;-55
2022/01/17 01:46:20;;;;;;;38.33;19.63;;;;;;;2.00;100.00;99802.34;4787232;29;20510;-54
2022/01/17 01:48:47;;;;;;;39.97;19.50;;;;;;;2.10;100.00;99802.41;4787073;29;20084;-52
2022/01/17 01:51:13;;;;;;;38.97;20.17;;;;;;;2.04;100.00;99800.28;4787229;29;20034;-54
2022/01/17 01:53:39;;;;;;;39.30;20.53;;;;;;;1.99;100.00;99790.13;4786872;29;20299;-53
2022/01/17 01:56:05;;;;;;;40.40;20.23;;;;;;;2.00;100.00;99791.78;4787111;29;20039;-50
2022/01/17 01:58:31;;;;;;;42.70;20.83;;;;;;;1.88;100.00;99792.78;4787048;29;20043;-53
2022/01/17 02:00:56;;;;;;;39.13;20.30;;;;;;;1.94;100.00;99792.31;4787078;29;20309;-56
2022/01/17 02:03:22;;;;;;;39.93;20.47;;;;;;;1.87;100.00;99796.38;4787040;29;20118;-54
2022/01/17 02:05:48;;;;;;;41.13;20.93;;;;;;;1.93;100.00;99784.53;4787040;29;20035;-55
2022/01/17 02:08:15;;;;;;;40.80;21.10;;;;;;;1.95;100.00;99783.44;4786906;29;20295;-54
2022/01/17 02:10:41;;;;;;;42.40;20.47;;;;;;;1.92;100.00;99772.31;4786950;29;20279;-53
2022/01/17 02:13:07;;;;;;;41.03;21.40;;;;;;;1.92;100.00;99764.41;4787062;29;20271;-55
2022/01/17 02:15:33;;;;;;;44.13;21.83;;;;;;;1.95;100.00;99765.00;4786928;29;20350;-52
2022/01/17 02:17:58;;;;;;;40.27;20.93;;;;;;;1.96;100.00;99769.28;4786401;29;20237;-56
2022/01/17 02:20:41;;;;;;;42.77;21.13;;;;;;;1.96;100.00;99744.75;4785539;30;20043;-52
2022/01/17 02:23:07;;;;;;;45.70;22.20;;;;;;;1.95;100.00;99745.69;4786737;29;20032;-50
2022/01/17 02:25:33;;;;;;;40.20;20.63;;;;;;;1.97;100.00;99741.94;4786891;29;21076;-53
2022/01/17 02:27:59;;;;;;;42.13;20.53;;;;;;;1.98;100.00;99743.63;4786400;29;20283;-55
2022/01/17 02:30:26;;;;;;;46.00;22.07;;;;;;;2.07;100.00;99747.31;4786604;29;20059;-55
2022/01/17 02:32:53;;;;;;;40.07;20.93;;;;;;;2.09;100.00;99737.47;4786470;29;20286;-56
2022/01/17 02:35:23;;;;;;;38.43;19.37;;;;;;;2.10;100.00;99745.25;4786533;29;20747;-54
2022/01/17 02:37:50;;;;;;;39.53;20.13;;;;;;;2.15;100.00;99735.16;4786473;29;20279;-50
2022/01/17 02:40:17;;;;;;;39.53;20.70;;;;;;;2.19;100.00;99733.94;4786369;29;20777;-52
2022/01/17 02:42:45;;;;;;;39.47;20.63;;;;;;;2.21;100.00;99732.97;4785216;30;20298;-55
2022/01/17 02:48:13;;;;;;;38.40;19.77;;;;;;;2.24;100.00;99722.16;4766171;30;20296;-54
2022/01/17 02:50:39;;;;;;;34.33;19.37;;;;;;;2.25;100.00;99718.56;4777450;30;20816;-54
2022/01/17 02:53:10;;;;;;;37.87;19.40;;;;;;;2.26;100.00;99718.44;4786050;29;20130;-54
2022/01/17 02:55:37;;;;;;;36.27;18.90;;;;;;;2.30;100.00;99725.13;4786231;29;20043;-54
2022/01/17 02:58:02;;;;;;;35.53;18.50;;;;;;;2.24;100.00;99730.06;4786347;29;20806;-54
2022/01/17 03:00:28;;;;;;;33.77;18.27;;;;;;;2.31;100.00;99726.78;4786212;30;20337;-55
2022/01/17 03:02:54;;;;;;;39.17;19.47;;;;;;;2.32;100.00;99722.34;4786124;29;20532;-53
2022/01/17 03:05:21;;;;;;;33.83;18.37;;;;;;;2.26;100.00;99717.59;4786180;29;20050;-54
2022/01/17 03:07:47;;;;;;;35.97;19.00;;;;;;;2.31;100.00;99695.13;4786115;29;20074;-52
2022/01/17 03:12:49;;;;;;;37.07;18.83;;;;;;;2.33;100.00;99700.28;4786354;29;20362;-54
2022/01/17 03:15:14;;;;;;;34.43;18.10;;;;;;;2.33;100.00;99687.94;4786093;29;20382;-55
2022/01/17 03:17:40;;;;;;;33.93;18.17;;;;;;;2.36;100.00;99689.47;4786217;30;20039;-55
2022/01/17 03:20:07;;;;;;;33.50;17.47;;;;;;;2.37;100.00;99697.28;4785922;29;20039;-56
2022/01/17 03:22:33;;;;;;;32.57;17.43;;;;;;;2.43;100.00;99707.28;4786335;29;20276;-52
2022/01/17 03:24:58;;;;;;;32.43;17.63;;;;;;;2.36;100.00;99708.78;4786301;29;20302;-53
2022/01/17 03:27:24;;;;;;;32.13;17.73;;;;;;;2.39;100.00;99710.31;4785812;29;20087;-51
2022/01/17 03:29:50;;;;;;;35.63;17.87;;;;;;;2.44;100.00;99708.13;4786093;29;20122;-55
2022/01/17 03:32:15;;;;;;;32.37;17.20;;;;;;;2.51;100.00;99711.91;4789380;29;20035;-54
2022/01/17 03:34:42;;;;;;;32.67;16.37;;;;;;;2.45;100.00;99701.88;4789359;30;20089;-54
2022/01/17 03:37:09;;;;;;;28.97;15.53;;;;;;;2.49;100.00;99704.13;4789241;29;20027;-54
2022/01/17 03:39:34;;;;;;;29.07;15.67;;;;;;;2.50;100.00;99694.41;4789202;29;20283;-52
2022/01/17 03:42:00;;;;;;;29.47;15.80;;;;;;;2.55;100.00;99708.88;4789501;29;20286;-54
2022/01/17 03:44:26;;;;;;;29.23;16.47;;;;;;;2.59;100.00;99706.81;4789537;29;20027;-52
2022/01/17 03:46:51;;;;;;;30.30;16.17;;;;;;;2.60;100.00;99711.13;4789325;29;20066;-56
2022/01/17 03:49:17;;;;;;;31.43;15.40;;;;;;;2.58;100.00;99712.22;4789363;29;20042;-55
2022/01/17 03:51:42;;;;;;;30.47;15.83;;;;;;;2.67;100.00;99698.22;4789328;29;20035;-50
2022/01/17 03:54:08;;;;;;;29.27;15.57;;;;;;;2.70;100.00;99705.88;4788993;30;20425;-56
2022/01/17 03:56:34;;;;;;;28.47;15.83;;;;;;;2.71;100.00;99691.72;4789181;29;20097;-50
2022/01/17 03:58:59;;;;;;;31.20;15.70;;;;;;;2.78;100.00;99687.56;4789056;29;20050;-54
2022/01/17 04:01:25;;;;;;;31.80;15.90;;;;;;;2.78;100.00;99700.78;4789104;29;20400;-53
2022/01/17 04:03:51;;;;;;;29.93;15.50;;;;;;;2.76;100.00;99706.22;4788963;29;20035;-51
2022/01/17 04:06:17;;;;;;;29.40;17.10;;;;;;;2.82;100.00;99707.47;4788914;30;20474;-54
2022/01/17 04:08:42;;;;;;;29.97;15.93;;;;;;;2.75;100.00;99703.69;4789136;29;20477;-55
2022/01/17 04:11:08;;;;;;;29.17;15.30;;;;;;;2.81;100.00;99687.31;4788883;29;20279;-55
2022/01/17 04:13:35;;;;;;;30.17;16.23;;;;;;;2.74;100.00;99705.50;4788892;30;20063;-50
2022/01/17 04:16:01;;;;;;;28.10;14.37;;;;;;;2.74;100.00;99707.31;4788763;29;20505;-55
2022/01/17 04:18:27;;;;;;;29.90;16.23;;;;;;;2.79;100.00;99705.91;4788623;29;20271;-51
2022/01/17 04:20:53;;;;;;;28.60;16.20;;;;;;;2.79;100.00;99705.91;4787519;30;20039;-56
2022/01/17 04:23:19;;;;;;;30.07;15.57;;;;;;;2.79;100.00;99705.91;4788678;29;20080;-51
2022/01/17 04:25:45;;;;;;;28.27;15.77;;;;;;;2.82;100.00;99704.81;4787559;30;20340;-51
2022/01/17 04:28:13;;;;;;;30.50;15.67;;;;;;;2.83;100.00;99696.78;4788570;29;20298;-54
2022/01/17 04:30:40;;;;;;;29.07;16.63;;;;;;;2.82;100.00;99697.75;4788582;29;20279;-56
2022/01/17 04:33:06;;;;;;;28.23;15.80;;;;;;;2.98;100.00;99699.88;4788588;29;20279;-53
2022/01/17 04:35:34;;;;;;;29.80;14.87;;;;;;;2.95;100.00;99713.34;4788543;29;20713;-53
2022/01/17 04:38:07;;;;;;;28.17;14.80;;;;;;;3.01;100.00;99704.03;4788420;29;20271;-53
2022/01/17 04:40:38;;;;;;;29.90;15.30;;;;;;;2.85;100.00;99713.31;4788445;29;20290;-54
2022/01/17 04:43:15;;;;;;;28.20;15.20;;;;;;;2.91;100.00;99702.22;4788032;29;20046;-51
2022/01/17 04:45:41;;;;;;;30.70;16.00;;;;;;;2.96;100.00;99698.34;4788611;29;20310;-53
2022/01/17 04:48:07;;;;;;;27.20;14.33;;;;;;;2.87;100.00;99697.34;4788109;29;20326;-52
2022/01/17 04:50:32;;;;;;;26.83;14.30;;;;;;;2.89;100.00;99704.16;4788225;29;20130;-55
2022/01/17 04:53:00;;;;;;;25.53;15.33;;;;;;;2.96;100.00;99696.53;4787965;30;20059;-51
2022/01/17 04:55:27;;;;;;;29.27;15.37;;;;;;;3.01;100.00;99689.03;4787139;30;20555;-53
2022/01/17 04:57:54;;;;;;;29.07;15.40;;;;;;;3.00;100.00;99686.56;4788181;29;20275;-56
2022/01/17 05:00:21;;;;;;;33.70;16.90;;;;;;;3.03;100.00;99670.44;4788209;29;20678;-53
2022/01/17 05:02:47;;;;;;;30.20;15.43;;;;;;;2.93;100.00;99670.41;4788026;29;20342;-51
2022/01/17 05:05:14;;;;;;;32.07;16.90;;;;;;;2.84;100.00;99666.78;4788106;29;20267;-54
2022/01/17 05:07:39;;;;;;;29.80;16.27;;;;;;;2.90;100.00;99674.16;4788210;29;20871;-53
2022/01/17 05:10:14;;;;;;;32.93;16.97;;;;;;;2.93;100.00;99678.31;4787905;29;20271;-54
2022/01/17 05:12:40;;;;;;;30.90;16.03;;;;;;;2.92;100.00;99672.22;4787986;29;20031;-54
2022/01/17 05:15:17;;;;;;;33.07;16.87;;;;;;;3.01;100.00;99675.84;4786698;30;20867;-54
2022/01/17 05:19:48;;;;;;;33.63;16.40;;;;;;;2.95;100.00;99689.59;4787780;29;20279;-52
2022/01/17 05:20:31;;;;;;;31.47;16.13;;;;;;;3.07;100.00;99691.16;4785007;30;20326;-53
2022/01/17 05:22:57;;;;;;;29.83;16.43;;;;;;;2.96;100.00;99691.25;4786606;30;20366;-55
2022/01/17 05:25:23;;;;;;;28.87;16.17;;;;;;;2.91;100.00;99681.09;4787641;29;20114;-53
2022/01/17 05:27:49;;;;;;;31.20;17.33;;;;;;;2.87;100.00;99670.97;4787692;29;20039;-53
2022/01/17 05:30:16;;;;;;;31.30;16.73;;;;;;;2.91;100.00;99667.91;4787404;29;20283;-53
2022/01/17 05:32:42;;;;;;;31.20;16.43;;;;;;;3.06;100.00;99667.53;4787544;29;20274;-53
2022/01/17 05:35:09;;;;;;;33.17;17.60;;;;;;;3.02;100.00;99668.75;4787429;29;20287;-48
2022/01/17 05:37:36;;;;;;;28.03;14.70;;;;;;;2.97;100.00;99692.09;4787501;29;20034;-51
2022/01/17 05:40:02;;;;;;;31.67;16.00;;;;;;;3.01;100.00;99662.63;4787185;29;20287;-53
2022/01/17 05:42:28;;;;;;;33.00;16.47;;;;;;;2.98;100.00;99684.06;4787497;29;20275;-54
2022/01/17 05:44:54;;;;;;;32.10;16.87;;;;;;;3.02;100.00;99693.34;4787220;29;20365;-52
2022/01/17 05:47:20;;;;;;;29.83;16.33;;;;;;;3.03;100.00;99689.75;4787131;29;20039;-54
2022/01/17 05:49:46;;;;;;;31.73;16.60;;;;;;;3.05;100.00;99684.34;4787173;29;20035;-53
2022/01/17 05:52:11;;;;;;;29.93;15.70;;;;;;;3.09;100.00;99669.91;4786789;29;20035;-55
2022/01/17 05:54:38;;;;;;;31.57;17.50;;;;;;;3.05;100.00;99669.31;4786066;29;20287;-54
2022/01/17 05:57:04;;;;;;;32.13;16.90;;;;;;;3.12;100.00;99656.41;4786862;29;20431;-49
2022/01/17 05:59:30;;;;;;;27.93;15.97;;;;;;;3.06;100.00;99667.53;4786751;29;20279;-55
2022/01/17 06:01:55;;;;;;;31.27;15.90;;;;;;;3.13;100.00;99664.19;4786806;30;20416;-52
2022/01/17 06:04:22;;;;;;;30.10;14.83;;;;;;;3.11;100.00;99668.81;4786920;29;20038;-52
2022/01/17 06:06:48;;;;;;;29.07;16.20;;;;;;;3.19;100.00;99661.03;4786266;29;20051;-54
2022/01/17 06:09:14;;;;;;;28.53;14.90;;;;;;;3.14;100.00;99663.22;4786627;29;20298;-53
2022/01/17 06:11:40;;;;;;;30.00;15.03;;;;;;;3.20;100.00;99652.13;4786801;29;20279;-50
2022/01/17 06:14:06;;;;;;;30.23;14.87;;;;;;;3.24;100.00;99652.66;4785380;30;20031;-53
2022/01/17 06:16:33;;;;;;;32.33;15.50;;;;;;;3.17;100.00;99648.91;4786531;29;20043;-52
2022/01/17 06:18:59;;;;;;;29.27;14.97;;;;;;;3.17;100.00;99633.91;4786709;29;20681;-55
2022/01/17 06:21:25;;;;;;;29.43;15.77;;;;;;;3.19;100.00;99629.34;4786731;29;20359;-52
2022/01/17 06:23:52;;;;;;;28.57;15.43;;;;;;;3.20;100.00;99614.31;4786615;29;20038;-52
2022/01/17 06:26:19;;;;;;;27.30;14.87;;;;;;;3.25;100.00;99599.72;4786849;29;20031;-54
2022/01/17 06:28:45;;;;;;;28.10;15.10;;;;;;;3.20;100.00;99603.75;4786553;29;20297;-55
2022/01/17 06:31:11;;;;;;;29.87;15.07;;;;;;;3.20;100.00;99604.59;4786367;29;20286;-54
2022/01/17 06:33:36;;;;;;;24.40;13.47;;;;;;;3.20;100.00;99612.53;4786833;29;20275;-56
2022/01/17 06:36:03;;;;;;;27.17;13.77;;;;;;;3.18;100.00;99619.75;4786626;30;20475;-51
2022/01/17 06:38:28;;;;;;;27.30;13.80;;;;;;;3.23;100.00;99627.25;4786538;29;20501;-54
2022/01/17 06:40:54;;;;;;;27.53;14.70;;;;;;;3.19;100.00;99649.63;4786398;29;20280;-53
2022/01/17 06:43:19;;;;;;;25.83;15.23;;;;;;;3.15;100.00;99680.75;4786518;30;20038;-52
2022/01/17 06:45:45;;;;;;;26.87;13.17;;;;;;;3.24;100.00;99656.16;4786385;29;20501;-53
2022/01/17 06:48:11;;;;;;;25.30;13.63;;;;;;;3.67;100.00;99662.84;4786115;29;20085;-54
2022/01/17 06:50:37;;;;;;;26.17;14.00;;;;;;;3.39;100.00;99663.69;4786545;29;20306;-55
2022/01/17 06:53:04;;;;;;;24.77;13.77;;;;;;;3.33;100.00;99664.25;4786117;29;20624;-56
2022/01/17 06:55:29;;;;;;;25.93;14.07;;;;;;;3.26;100.00;99667.41;4782096;29;20352;-52
2022/01/17 06:57:55;;;;;;;25.83;14.30;;;;;;;3.20;100.00;99667.13;4783614;29;20267;-55
2022/01/17 07:00:20;;;;;;;26.10;13.97;;;;;;;3.30;100.00;99667.16;4786385;29;20470;-55
2022/01/17 07:02:46;;;;;;;27.07;14.07;;;;;;;3.19;100.00;99673.38;4784646;30;20485;-51
2022/01/17 07:05:12;;;;;;;25.30;13.50;;;;;;;3.11;100.00;99668.81;4785555;29;20417;-53
2022/01/17 07:07:37;;;;;;;27.43;14.80;;;;;;;2.98;100.00;99668.22;4785862;29;20095;-59
2022/01/17 07:10:05;;;;;;;25.77;14.10;;;;;;;2.96;100.00;99680.69;4785689;29;20042;-55
2022/01/17 07:12:30;;;;;;;28.13;14.33;;;;;;;2.89;100.00;99677.75;4785352;29;20042;-55
2022/01/17 07:14:56;;;;;;;28.60;14.90;;;;;;;2.84;100.00;99673.88;4785160;30;20279;-53
2022/01/17 07:17:21;;;;;;;26.23;14.53;;;;;;;2.70;100.00;99645.19;4785772;29;20106;-54
2022/01/17 07:19:47;;;;;;;27.20;13.97;;;;;;;2.66;100.00;99651.69;4785527;29;20127;-52
2022/01/17 07:22:12;;;;;;;28.00;14.07;;;;;;;2.59;100.00;99698.06;4785543;29;20114;-54
2022/01/17 07:24:39;;;;;;;31.80;16.27;;;;;;;2.61;100.00;99717.25;4786452;30;20031;-56
2022/01/17 07:27:05;;;;;;;30.20;14.87;;;;;;;2.62;100.00;99722.38;4784569;29;20065;-55
2022/01/17 07:29:30;;;;;;;32.63;16.47;;;;;;;2.51;100.00;99728.59;4782466;29;20746;-55
2022/01/17 07:31:56;;;;;;;32.63;17.20;;;;;;;2.50;100.00;99745.38;4785533;29;20039;-56
2022/01/17 07:34:22;;;;;;;33.17;17.90;;;;;;;2.39;100.00;99742.81;4785603;29;20051;-54
2022/01/17 07:36:48;;;;;;;32.97;16.50;;;;;;;2.50;100.00;99755.94;4787176;29;20031;-65
2022/01/17 07:39:14;;;;;;;31.37;16.70;;;;;;;2.43;100.00;99753.91;4797682;29;20046;-66
2022/01/17 07:41:41;;;;;;;32.50;17.17;;;;;;;2.55;100.00;99731.78;4784278;30;20271;-66
2022/01/17 07:44:10;;;;;;;31.07;16.20;;;;;;;2.52;100.00;99722.34;4785396;29;20027;-66
2022/01/17 07:46:47;;;;;;;31.60;16.20;;;;;;;2.60;100.00;99713.75;4785746;29;20654;-65
2022/01/17 07:49:19;;;;;;;31.63;16.07;;;;;;;2.43;100.00;99715.19;4785399;29;20607;-65
2022/01/17 07:51:47;;;;;;;31.23;15.90;;;;;;;2.48;100.00;99717.44;4785635;29;20286;-64
2022/01/17 07:54:15;;;;;;;30.77;15.40;;;;;;;2.35;100.00;99709.75;4784435;29;20315;-65
2022/01/17 07:56:43;;;;;;;30.53;16.33;;;;;;;2.36;100.00;99700.88;4784288;29;20303;-64
2022/01/17 07:59:10;;;;;;;33.10;16.73;;;;;;;2.37;100.00;99683.25;4782575;29;20333;-65
2022/01/17 08:01:37;;;;;;;31.90;16.70;;;;;;;2.49;100.00;99685.66;4782312;30;20271;-64
2022/01/17 08:04:04;;;;;;;33.50;16.60;;;;;;;2.47;100.00;99694.66;4785639;29;20299;-65
2022/01/17 08:06:30;;;;;;;31.57;15.87;;;;;;;2.43;100.00;99678.25;4784052;30;20283;-64
2022/01/17 08:08:57;;;;;;;31.17;16.37;;;;;;;2.50;100.00;99689.16;4784500;29;20761;-65
2022/01/17 08:11:23;;;;;;;29.63;16.00;;;;;;;2.54;100.00;99687.88;4784981;29;20438;-64
2022/01/17 08:13:48;;;;;;;30.07;15.83;;;;;;;2.48;100.00;99691.91;4789320;29;20278;-65
2022/01/17 08:16:15;;;;;;;29.83;15.00;;;;;;;2.46;100.00;99685.94;4801986;29;20038;-64
2022/01/17 08:18:43;;;;;;;32.00;16.13;;;;;;;2.53;100.00;99678.34;4806601;29;20062;-64
2022/01/17 08:21:09;;;;;;;26.83;14.77;;;;;;;2.56;100.00;99685.97;4806379;29;20380;-64
2022/01/17 08:23:36;;;;;;;26.67;14.40;;;;;;;2.61;100.00;99685.56;4806444;29;20279;-64
2022/01/17 08:26:02;;;;;;;28.17;15.00;;;;;;;2.64;100.00;99683.53;4806118;29;20046;-63
2022/01/17 08:28:28;;;;;;;25.57;14.50;;;;;;;2.65;100.00;99692.28;4806353;29;20294;-64
2022/01/17 08:30:53;;;;;;;26.67;14.70;;;;;;;2.72;100.00;99669.66;4790882;29;20769;-64
2022/01/17 08:33:19;;;;;;;27.97;15.20;;;;;;;2.75;100.00;99657.03;4788246;30;20124;-64
2022/01/17 08:35:45;;;;;;;26.10;14.17;;;;;;;2.78;100.00;99651.47;4788073;29;20134;-64
2022/01/17 08:38:10;;;;;;;25.83;13.80;;;;;;;2.65;100.00;99666.72;4788477;29;20039;-64
2022/01/17 08:40:36;;;;;;;27.17;14.13;;;;;;;2.78;100.00;99666.47;4788261;29;20050;-65
2022/01/17 08:43:09;;;;;;;25.77;13.53;;;;;;;2.81;100.00;99674.13;4788452;30;20398;-64
2022/01/17 08:45:35;;;;;;;26.13;15.02;;;;;;;2.76;100.00;99681.63;4787229;30;20047;-52
2022/01/17 08:48:00;;;;;;;28.97;13.70;;;;;;;2.96;100.00;99678.06;4786521;30;20042;-55
2022/01/17 08:50:27;;;;;;;24.33;13.60;;;;;;;2.95;100.00;99672.91;4787798;30;20035;-51
2022/01/17 08:52:52;;;;;;;22.80;12.97;;;;;;;2.97;100.00;99674.47;4787681;29;20051;-53
2022/01/17 08:55:19;;;;;;;24.10;13.90;;;;;;;3.01;100.00;99677.63;4787651;29;20780;-54
2022/01/17 08:57:44;;;;;;;23.47;12.40;;;;;;;3.11;100.00;99697.84;4788089;29;20409;-56
2022/01/17 09:00:13;;;;;;;22.00;12.13;;;;;;;3.09;100.00;99689.22;4787927;29;20284;-54
2022/01/17 09:02:39;;;;;;;21.40;12.43;;;;;;;3.14;100.00;99679.06;4784819;29;20042;-55
2022/01/17 09:05:05;;;;;;;21.97;12.17;;;;;;;3.18;100.00;99679.63;4787845;29;20271;-56
2022/01/17 09:07:30;;;;;;;21.27;11.83;;;;;;;3.31;100.00;99684.66;4788109;29;20039;-53
2022/01/17 09:09:56;;;;;;;19.93;12.13;;;;;;;3.29;100.00;99708.56;4787846;30;20493;-54
2022/01/17 09:12:21;;;;;;;20.03;10.63;;;;;;;3.33;100.00;99699.41;4787683;29;20144;-55
2022/01/17 09:14:47;;;;;;;20.13;11.20;;;;;;;3.39;100.00;99709.41;4787742;29;20430;-53
2022/01/17 09:17:12;;;;;;;20.13;11.47;;;;;;;3.35;100.00;99696.59;4787818;29;20031;-54
2022/01/17 09:19:39;;;;;;;21.37;11.43;;;;;;;3.46;100.00;99694.69;4787745;30;20157;-55
2022/01/17 09:22:07;;;;;;;19.33;11.07;;;;;;;3.39;100.00;99680.38;4787794;29;20054;-56
2022/01/17 09:24:36;;;;;;;19.87;11.37;;;;;;;3.25;100.00;99688.69;4787518;29;20271;-55
2022/01/17 09:27:03;;;;;;;23.33;13.83;;;;;;;3.31;100.00;99672.28;4787517;29;20287;-54
2022/01/17 09:29:29;;;;;;;21.40;10.47;;;;;;;3.36;100.00;99679.78;4786653;29;20275;-55
2022/01/17 09:31:55;;;;;;;19.53;10.97;;;;;;;3.43;100.00;99688.84;4787984;29;20274;-58
2022/01/17 09:34:20;;;;;;;20.03;10.57;;;;;;;3.47;100.00;99675.22;4784637;29;20039;-54
2022/01/17 09:36:46;;;;;;;18.03;11.20;;;;;;;3.47;100.00;99682.31;4787576;29;20031;-53
2022/01/17 09:39:11;;;;;;;18.97;10.13;;;;;;;3.58;100.00;99696.22;4787451;29;20027;-55
2022/01/17 09:41:38;;;;;;;16.93;10.03;;;;;;;3.50;100.00;99677.59;4787492;29;20037;-53
2022/01/17 09:44:05;;;;;;;19.53;10.63;;;;;;;3.57;100.00;99678.72;4787262;29;20161;-56
2022/01/17 09:46:36;;;;;;;32.70;17.80;;;;;;;3.53;100.00;99672.03;4787066;29;20286;-57
2022/01/17 09:49:13;;;;;;;18.03;10.70;;;;;;;3.53;100.00;99669.38;4787222;29;20279;-55
2022/01/17 09:54:22;;;;;;;18.70;10.90;;;;;;;3.68;100.00;99661.88;4786875;29;20639;-55
2022/01/17 09:56:53;;;;;;;18.67;10.27;;;;;;;3.59;100.00;99647.69;4786644;29;20286;-57
2022/01/17 09:59:19;;;;;;;18.60;10.73;;;;;;;3.61;100.00;99643.09;4785700;30;20283;-56
2022/01/17 10:01:45;;;;;;;18.63;10.40;;;;;;;3.73;100.00;99649.06;4787044;29;20638;-52
2022/01/17 10:04:10;;;;;;;16.60;10.30;;;;;;;3.80;100.00;99649.38;4784631;29;20039;-54
2022/01/17 10:06:39;;;;;;;17.37;10.10;;;;;;;3.79;100.00;99651.16;4785155;29;20336;-58
2022/01/17 10:09:22;;;;;;;20.90;10.37;;;;;;;3.70;100.00;99675.78;4786892;29;20031;-56
2022/01/17 10:12:06;;;;;;;17.95;10.63;;;;;;;3.66;100.00;99655.91;4785791;30;20265;-53
2022/01/17 10:15:02;;;;;;;17.53;10.50;;;;;;;3.65;100.00;99667.44;4786621;29;20039;-56
2022/01/17 10:17:50;;;;;;;15.87;9.70;;;;;;;3.78;100.00;99630.16;4786579;29;20274;-54
2022/01/17 10:20:18;;;;;;;19.07;10.17;;;;;;;3.83;100.00;99646.41;4786648;29;20306;-53
2022/01/17 10:22:55;;;;;;;16.73;9.73;;;;;;;3.84;100.00;99640.16;4786653;29;20278;-52
2022/01/17 10:35:31;;;;;;;17.07;9.23;;;;;;;3.91;100.00;99635.97;4765721;29;20062;-53
2022/01/17 10:38:08;;;;;;;13.57;8.27;;;;;;;3.99;100.00;99626.34;4785272;29;20263;-53
2022/01/17 10:40:41;;;;;;;16.87;9.20;;;;;;;4.07;100.00;99609.78;4784845;30;20298;-53
2022/01/17 10:43:34;;;;;;;16.48;9.27;;;;;;;4.08;100.00;99615.91;4786288;29;20340;-50
2022/01/17 10:46:00;;;;;;;14.60;8.37;;;;;;;4.10;100.00;99603.38;4786566;29;20398;-54
2022/01/17 10:48:45;;;;;;;18.40;8.87;;;;;;;4.14;100.00;99610.03;4786130;29;20283;-53
2022/01/17 10:51:13;;;;;;;16.07;9.93;;;;;;;4.06;100.00;99601.97;4785046;30;20492;-55
2022/01/17 10:53:40;;;;;;;15.53;8.67;;;;;;;4.12;100.00;99588.19;4785985;29;20374;-56
2022/01/17 10:56:08;;;;;;;16.70;9.57;;;;;;;4.06;100.00;99617.84;4785763;29;20264;-52
2022/01/17 10:58:37;;;;;;;15.33;9.03;;;;;;;4.13;100.00;99625.06;4786062;29;20329;-53
2022/01/17 11:01:21;;;;;;;15.70;8.90;;;;;;;4.13;100.00;99640.94;4786110;29;20314;-53
2022/01/17 11:03:48;;;;;;;16.90;8.57;;;;;;;4.18;100.00;99632.56;4786106;29;20826;-54
2022/01/17 11:06:18;;;;;;;13.83;8.07;;;;;;;4.12;100.00;99610.19;4785936;29;20058;-54
2022/01/17 11:08:46;;;;;;;14.33;8.47;;;;;;;4.11;100.00;99627.03;4783330;29;20298;-52
2022/01/17 11:11:12;;;;;;;16.57;8.87;;;;;;;4.10;100.00;99646.50;4784961;30;20611;-54
2022/01/17 11:13:42;;;;;;;13.73;7.37;;;;;;;4.21;100.00;99648.16;4784736;29;20287;-54
2022/01/17 11:16:11;;;;;;;15.40;9.13;;;;;;;4.18;100.00;99640.50;4784728;30;20122;-54
2022/01/17 11:18:41;;;;;;;16.27;9.47;;;;;;;4.17;100.00;99623.78;4785889;29;20348;-53
2022/01/17 11:21:13;;;;;;;16.07;9.60;;;;;;;4.17;100.00;99605.28;4784865;30;20268;-54
2022/01/17 11:23:43;;;;;;;15.30;8.97;;;;;;;4.10;100.00;99606.00;4784657;29;20287;-57
2022/01/17 11:26:10;;;;;;;17.07;9.23;;;;;;;4.09;100.00;99614.91;4785967;29;20282;-52
2022/01/17 11:28:36;;;;;;;16.30;8.80;;;;;;;4.14;100.00;99596.81;4785741;30;20287;-50
2022/01/17 11:31:08;;;;;;;17.00;9.13;;;;;;;4.11;100.00;99599.75;4785790;29;20271;-49
2022/01/17 11:33:34;;;;;;;13.63;8.40;;;;;;;4.12;100.00;99588.19;4785880;29;20305;-54
2022/01/17 11:36:00;;;;;;;14.90;8.53;;;;;;;4.31;100.00;99581.00;4786201;29;20352;-57
2022/01/17 11:38:30;;;;;;;14.23;8.30;;;;;;;4.47;100.00;99590.13;4784880;29;20267;-51
2022/01/17 11:40:56;;;;;;;13.50;8.43;;;;;;;4.21;100.00;99572.28;4784175;29;20517;-52
2022/01/17 11:43:35;;;;;;;15.87;9.60;;;;;;;4.15;100.00;99579.97;4785884;29;20634;-52
2022/01/17 11:46:25;;;;;;;15.57;8.43;;;;;;;4.24;100.00;99553.47;4786057;29;20342;-56
2022/01/17 11:48:53;;;;;;;18.60;7.93;;;;;;;4.26;100.00;99551.53;4785954;29;20789;-52
2022/01/17 11:51:19;;;;;;;13.23;9.50;;;;;;;4.15;100.00;99567.59;4785893;29;20329;-52